Time;durP1;ratioP1;P1;durP2;ratioP2;P2;SDS_P1;SDS_P2;PMS_P1;PMS_P2;Temp;Humidity;BMP_temperature;BMP_pressure;BME280_temperature;BME280_humidity;BME280_pressure;Samples;Min_cycle;Max_cycle;Signal;HPM_P1;HPM_P2
2021/01/06 00:01:28;;;;;;;28.55;17.73;;;;;;;;;;5093827;28;20215;-64
2021/01/06 00:03:58;;;;;;;27.02;16.52;;;;;;;;;;5094529;28;20195;-64
2021/01/06 00:06:31;;;;;;;30.75;18.20;;;;;;;;;;5094342;28;20190;-64
2021/01/06 00:08:58;;;;;;;29.67;17.58;;;;;;;;;;5094288;28;20567;-65
2021/01/06 00:11:36;;;;;;;28.02;16.80;;;;;;;;;;5094901;28;20191;-65
2021/01/06 00:14:05;;;;;;;27.75;17.10;;;;;;;;;;5094153;28;20566;-65
2021/01/06 00:16:32;;;;;;;33.42;16.52;;;;;;;;;;5093965;28;20226;-65
2021/01/06 00:18:59;;;;;;;33.67;18.30;;;;;;;;;;5093992;28;20584;-65
2021/01/06 00:21:25;;;;;;;26.33;15.90;;;;;;;;;;5094738;28;20206;-64
2021/01/06 00:23:52;;;;;;;29.95;17.27;;;;;;;;;;5093901;28;20190;-65
2021/01/06 00:26:20;;;;;;;35.75;17.08;;;;;;;;;;5093786;28;20201;-65
2021/01/06 00:28:49;;;;;;;29.30;16.60;;;;;;;;;;5093743;28;20187;-64
2021/01/06 00:31:15;;;;;;;24.00;15.77;;;;;;;;;;5094126;28;20683;-64
2021/01/06 00:33:42;;;;;;;28.98;16.55;;;;;;;;;;5093808;28;20569;-64
2021/01/06 00:36:19;;;;;;;31.33;18.25;;;;;;;;;;5093599;28;20227;-64
2021/01/06 00:38:50;;;;;;;27.02;16.45;;;;;;;;;;5094212;28;20179;-66
2021/01/06 00:41:25;;;;;;;25.67;16.02;;;;;;;;;;5094084;28;20210;-65
2021/01/06 00:43:52;;;;;;;26.80;16.08;;;;;;;;;;5093726;28;20183;-65
2021/01/06 00:46:19;;;;;;;25.27;16.33;;;;;;;;;;5094073;28;20637;-65
2021/01/06 00:48:46;;;;;;;26.13;16.98;;;;;;;;;;5093560;28;20235;-65
2021/01/06 00:51:14;;;;;;;28.20;17.25;;;;;;;;;;5093537;28;20199;-64
2021/01/06 00:53:41;;;;;;;27.73;17.60;;;;;;;;;;5093564;28;20199;-64
2021/01/06 00:56:10;;;;;;;25.85;15.15;;;;;;;;;;5093356;28;20219;-64
2021/01/06 00:58:37;;;;;;;26.65;15.30;;;;;;;;;;5093945;28;20202;-64
2021/01/06 01:01:03;;;;;;;25.17;16.10;;;;;;;;;;5093591;28;20682;-64
2021/01/06 01:03:30;;;;;;;27.25;16.25;;;;;;;;;;5093439;28;20558;-65
2021/01/06 01:05:57;;;;;;;25.98;15.00;;;;;;;;;;5091894;28;20199;-65
2021/01/06 01:08:24;;;;;;;26.33;15.45;;;;;;;;;;5093499;28;20211;-65
2021/01/06 01:10:54;;;;;;;22.30;13.63;;;;;;;;;;5093590;28;20655;-64
2021/01/06 01:13:22;;;;;;;27.88;16.15;;;;;;;;;;5093309;28;20204;-64
2021/01/06 01:15:51;;;;;;;25.48;15.13;;;;;;;;;;5093249;28;20225;-64
2021/01/06 01:18:19;;;;;;;25.17;15.23;;;;;;;;;;5093307;28;20203;-64
2021/01/06 01:20:50;;;;;;;27.05;14.02;;;;;;;;;;5093214;28;20191;-64
2021/01/06 01:23:20;;;;;;;22.75;13.30;;;;;;;;;;5093152;28;20253;-64
2021/01/06 01:25:47;;;;;;;23.60;15.50;;;;;;;;;;5093263;28;20203;-65
2021/01/06 01:28:14;;;;;;;22.25;14.57;;;;;;;;;;5093702;28;20269;-65
2021/01/06 01:30:41;;;;;;;23.08;15.30;;;;;;;;;;5093099;28;20199;-65
2021/01/06 01:33:09;;;;;;;23.80;15.20;;;;;;;;;;5093054;28;20203;-65
2021/01/06 01:35:36;;;;;;;23.00;15.38;;;;;;;;;;5093370;28;20215;-65
2021/01/06 01:38:04;;;;;;;26.80;14.55;;;;;;;;;;5093107;28;20191;-65
2021/01/06 01:40:35;;;;;;;23.05;15.20;;;;;;;;;;5093385;28;20187;-65
2021/01/06 01:43:05;;;;;;;20.27;13.98;;;;;;;;;;5093272;28;20205;-65
2021/01/06 01:46:01;;;;;;;21.13;14.63;;;;;;;;;;5092927;28;20673;-65
2021/01/06 01:48:28;;;;;;;26.23;16.23;;;;;;;;;;5092374;28;20245;-65
2021/01/06 01:51:00;;;;;;;22.77;14.40;;;;;;;;;;5092964;28;20223;-65
2021/01/06 01:53:37;;;;;;;25.85;15.20;;;;;;;;;;5093199;28;20203;-65
2021/01/06 01:56:06;;;;;;;26.63;15.23;;;;;;;;;;5092241;28;20230;-64
2021/01/06 01:58:35;;;;;;;23.05;14.15;;;;;;;;;;5096385;28;20210;-64
2021/01/06 02:01:03;;;;;;;21.80;12.55;;;;;;;;;;5096425;28;20203;-64
2021/01/06 02:03:44;;;;;;;21.83;14.50;;;;;;;;;;5096380;28;20225;-64
2021/01/06 02:06:18;;;;;;;20.10;14.55;;;;;;;;;;5096480;28;20179;-64
2021/01/06 02:08:50;;;;;;;19.17;14.00;;;;;;;;;;5095266;28;20665;-64
2021/01/06 02:11:20;;;;;;;17.77;12.98;;;;;;;;;;5096643;28;20191;-64
2021/01/06 02:13:58;;;;;;;18.23;14.40;;;;;;;;;;5096407;28;20199;-64
2021/01/06 02:16:31;;;;;;;20.35;13.82;;;;;;;;;;5096168;28;20227;-64
2021/01/06 02:18:58;;;;;;;21.65;14.50;;;;;;;;;;5096056;28;20210;-64
2021/01/06 02:21:29;;;;;;;21.80;13.27;;;;;;;;;;5096109;28;20191;-64
2021/01/06 02:23:58;;;;;;;22.60;14.57;;;;;;;;;;5096621;28;20210;-64
2021/01/06 02:26:26;;;;;;;18.27;12.85;;;;;;;;;;5096166;28;20195;-64
2021/01/06 02:28:53;;;;;;;21.30;13.20;;;;;;;;;;5096467;28;20553;-64
2021/01/06 02:31:19;;;;;;;24.42;14.90;;;;;;;;;;5096299;28;20654;-64
2021/01/06 02:33:47;;;;;;;19.95;14.13;;;;;;;;;;5095888;28;20199;-64
2021/01/06 02:36:14;;;;;;;29.00;14.25;;;;;;;;;;5094286;28;20231;-64
2021/01/06 02:38:41;;;;;;;19.35;13.27;;;;;;;;;;5096084;28;20191;-64
2021/01/06 02:41:08;;;;;;;21.40;13.65;;;;;;;;;;5095908;28;20191;-64
2021/01/06 02:43:35;;;;;;;23.73;14.32;;;;;;;;;;5095660;28;20206;-64
2021/01/06 02:46:04;;;;;;;23.05;14.85;;;;;;;;;;5095658;28;20191;-64
2021/01/06 02:48:35;;;;;;;21.05;13.40;;;;;;;;;;5096251;28;20239;-64
2021/01/06 02:51:07;;;;;;;20.30;14.20;;;;;;;;;;5095031;28;20222;-64
2021/01/06 02:53:53;;;;;;;22.80;14.38;;;;;;;;;;5095680;28;20224;-64
2021/01/06 02:56:21;;;;;;;19.63;13.25;;;;;;;;;;5094016;28;20214;-64
2021/01/06 02:58:49;;;;;;;19.55;13.25;;;;;;;;;;5095723;28;20203;-64
2021/01/06 03:01:22;;;;;;;24.58;14.73;;;;;;;;;;5095244;28;20202;-64
2021/01/06 03:03:50;;;;;;;21.38;13.70;;;;;;;;;;5095736;28;20192;-64
2021/01/06 03:06:22;;;;;;;27.70;15.82;;;;;;;;;;5095352;28;20240;-64
2021/01/06 03:08:49;;;;;;;22.77;14.52;;;;;;;;;;5095187;28;20210;-64
2021/01/06 03:11:15;;;;;;;19.08;13.20;;;;;;;;;;5095471;28;20199;-64
2021/01/06 03:13:43;;;;;;;24.15;13.43;;;;;;;;;;5095216;28;20206;-64
2021/01/06 03:16:12;;;;;;;23.15;14.85;;;;;;;;;;5095016;28;20215;-64
2021/01/06 03:18:43;;;;;;;20.90;13.63;;;;;;;;;;5095125;28;20178;-64
2021/01/06 03:21:10;;;;;;;19.38;12.85;;;;;;;;;;5095284;28;20187;-64
2021/01/06 03:23:49;;;;;;;23.88;15.85;;;;;;;;;;5094974;28;20693;-64
2021/01/06 03:26:21;;;;;;;23.70;14.43;;;;;;;;;;5095029;28;20210;-64
2021/01/06 03:28:48;;;;;;;27.40;17.10;;;;;;;;;;5095330;28;20187;-64
2021/01/06 03:31:17;;;;;;;25.20;15.55;;;;;;;;;;5095185;28;20219;-64
2021/01/06 03:33:54;;;;;;;21.58;14.15;;;;;;;;;;5094919;28;20665;-64
2021/01/06 03:36:23;;;;;;;18.38;13.30;;;;;;;;;;5094561;28;20558;-64
2021/01/06 03:38:53;;;;;;;18.90;12.35;;;;;;;;;;5094571;28;20195;-64
2021/01/06 03:41:20;;;;;;;20.08;13.15;;;;;;;;;;5094675;28;20261;-64
2021/01/06 03:44:07;;;;;;;21.05;14.55;;;;;;;;;;5095090;28;20199;-64
2021/01/06 03:46:45;;;;;;;21.30;13.30;;;;;;;;;;5094456;28;20199;-64
2021/01/06 03:49:30;;;;;;;18.38;11.82;;;;;;;;;;5094514;28;20227;-64
2021/01/06 03:52:03;;;;;;;19.00;12.90;;;;;;;;;;5094386;28;20658;-64
2021/01/06 03:54:41;;;;;;;21.02;12.13;;;;;;;;;;5094391;28;20203;-63
2021/01/06 03:57:09;;;;;;;22.75;14.20;;;;;;;;;;5094752;28;20215;-63
2021/01/06 03:59:41;;;;;;;19.85;12.18;;;;;;;;;;5094367;28;20532;-63
2021/01/06 04:02:12;;;;;;;22.10;14.27;;;;;;;;;;5094370;28;20179;-64
2021/01/06 04:04:44;;;;;;;20.60;14.73;;;;;;;;;;5094175;28;20199;-64
2021/01/06 04:07:34;;;;;;;17.52;12.75;;;;;;;;;;5094086;28;20191;-64
2021/01/06 04:10:06;;;;;;;19.25;13.40;;;;;;;;;;5091477;28;20209;-64
2021/01/06 04:12:32;;;;;;;20.98;13.13;;;;;;;;;;5094393;28;20535;-63
2021/01/06 04:14:59;;;;;;;17.40;12.32;;;;;;;;;;5094257;28;20630;-63
2021/01/06 04:17:35;;;;;;;19.90;13.07;;;;;;;;;;5094060;28;20237;-63
2021/01/06 04:20:02;;;;;;;19.38;12.88;;;;;;;;;;5093806;28;20212;-63
2021/01/06 04:22:39;;;;;;;21.48;13.25;;;;;;;;;;5094192;28;20606;-63
2021/01/06 04:25:26;;;;;;;21.08;13.25;;;;;;;;;;5093967;28;20198;-64
2021/01/06 04:28:00;;;;;;;17.30;12.77;;;;;;;;;;5093260;28;20268;-64
2021/01/06 04:30:29;;;;;;;20.23;12.63;;;;;;;;;;5094288;28;20195;-64
2021/01/06 04:32:56;;;;;;;18.25;12.10;;;;;;;;;;5093739;28;20205;-63
2021/01/06 04:35:25;;;;;;;20.67;12.65;;;;;;;;;;5093629;28;20222;-64
2021/01/06 04:37:52;;;;;;;18.20;12.20;;;;;;;;;;5094216;28;20206;-64
2021/01/06 04:40:21;;;;;;;16.83;10.95;;;;;;;;;;5093228;28;20214;-64
2021/01/06 04:42:48;;;;;;;18.90;12.30;;;;;;;;;;5093318;28;20207;-63
2021/01/06 04:45:22;;;;;;;16.40;12.30;;;;;;;;;;5093643;28;20208;-63
2021/01/06 04:47:52;;;;;;;18.02;12.15;;;;;;;;;;5093538;28;20720;-63
2021/01/06 04:50:25;;;;;;;15.95;11.90;;;;;;;;;;5091990;28;20195;-64
2021/01/06 04:53:00;;;;;;;16.80;11.10;;;;;;;;;;5093652;28;20560;-64
2021/01/06 04:55:27;;;;;;;18.85;13.15;;;;;;;;;;5093518;28;20209;-64
2021/01/06 04:58:04;;;;;;;16.05;11.68;;;;;;;;;;5093516;28;20191;-64
2021/01/06 05:00:36;;;;;;;18.10;11.45;;;;;;;;;;5093762;28;20203;-64
2021/01/06 05:03:08;;;;;;;20.85;12.30;;;;;;;;;;5094061;28;20191;-64
2021/01/06 05:05:43;;;;;;;18.40;12.15;;;;;;;;;;5093453;28;20214;-64
2021/01/06 05:08:13;;;;;;;15.13;10.80;;;;;;;;;;5093373;28;20256;-64
2021/01/06 05:10:45;;;;;;;17.73;12.60;;;;;;;;;;5093598;28;20203;-64
2021/01/06 05:13:18;;;;;;;17.15;11.20;;;;;;;;;;5093335;28;20212;-64
2021/01/06 05:15:47;;;;;;;18.95;12.45;;;;;;;;;;5093226;28;20236;-64
2021/01/06 05:18:16;;;;;;;18.30;12.88;;;;;;;;;;5093418;28;20625;-64
2021/01/06 05:20:43;;;;;;;17.65;12.82;;;;;;;;;;5093829;28;20531;-65
2021/01/06 05:23:15;;;;;;;16.70;11.80;;;;;;;;;;5093847;28;20527;-65
2021/01/06 05:25:42;;;;;;;17.75;12.00;;;;;;;;;;5093330;28;20213;-65
2021/01/06 05:28:12;;;;;;;16.10;11.65;;;;;;;;;;5092513;28;20195;-65
2021/01/06 05:30:40;;;;;;;22.15;13.20;;;;;;;;;;5092696;28;20708;-66
2021/01/06 05:33:12;;;;;;;14.68;11.77;;;;;;;;;;5097593;28;20223;-63
2021/01/06 05:35:40;;;;;;;18.38;11.40;;;;;;;;;;5095586;28;20234;-64
2021/01/06 05:38:07;;;;;;;17.85;11.88;;;;;;;;;;5097139;28;20567;-63
2021/01/06 05:40:38;;;;;;;16.25;11.48;;;;;;;;;;5097231;28;20625;-65
2021/01/06 05:43:19;;;;;;;17.05;11.13;;;;;;;;;;5097064;28;20256;-65
2021/01/06 05:45:52;;;;;;;17.25;11.90;;;;;;;;;;5096866;28;20611;-63
2021/01/06 05:48:27;;;;;;;20.90;13.40;;;;;;;;;;5096654;28;20676;-63
2021/01/06 05:51:09;;;;;;;17.05;11.90;;;;;;;;;;5097129;28;20196;-64
2021/01/06 05:53:36;;;;;;;19.45;12.38;;;;;;;;;;5096802;28;20568;-64
2021/01/06 05:56:20;;;;;;;14.75;11.20;;;;;;;;;;5096605;28;20211;-64
2021/01/06 05:58:54;;;;;;;16.38;12.07;;;;;;;;;;5096717;28;20195;-64
2021/01/06 06:01:32;;;;;;;16.02;10.75;;;;;;;;;;5096863;28;20200;-64
2021/01/06 06:04:11;;;;;;;15.93;10.73;;;;;;;;;;5096582;28;20248;-64
2021/01/06 06:06:45;;;;;;;15.57;10.95;;;;;;;;;;5096874;28;20629;-64
2021/01/06 06:09:21;;;;;;;15.02;11.35;;;;;;;;;;5096487;28;20229;-64
2021/01/06 06:12:03;;;;;;;16.90;12.32;;;;;;;;;;5095745;28;20210;-64
2021/01/06 06:14:42;;;;;;;16.45;10.75;;;;;;;;;;5096199;28;20206;-64
2021/01/06 06:17:11;;;;;;;17.80;12.20;;;;;;;;;;5096124;28;20692;-64
2021/01/06 06:19:47;;;;;;;18.13;11.80;;;;;;;;;;5096523;28;20207;-64
2021/01/06 06:22:16;;;;;;;15.70;11.23;;;;;;;;;;5096159;28;20205;-64
2021/01/06 06:24:42;;;;;;;21.42;11.80;;;;;;;;;;5096311;28;20558;-64
2021/01/06 06:27:28;;;;;;;16.05;11.38;;;;;;;;;;5096105;28;20195;-64
2021/01/06 06:30:15;;;;;;;20.05;12.77;;;;;;;;;;5096361;28;20199;-64
2021/01/06 06:32:44;;;;;;;15.95;11.95;;;;;;;;;;5096415;28;20176;-64
2021/01/06 06:35:19;;;;;;;18.75;13.38;;;;;;;;;;5096655;28;20195;-64
2021/01/06 06:37:56;;;;;;;17.45;11.95;;;;;;;;;;5096305;28;20579;-64
2021/01/06 06:40:23;;;;;;;16.83;10.63;;;;;;;;;;5096220;28;20531;-64
2021/01/06 06:42:53;;;;;;;15.00;10.95;;;;;;;;;;5095416;28;20669;-64
2021/01/06 06:45:38;;;;;;;14.73;12.38;;;;;;;;;;5095666;28;20241;-64
2021/01/06 06:48:05;;;;;;;21.15;11.32;;;;;;;;;;5095397;28;20595;-64
2021/01/06 06:50:45;;;;;;;16.08;11.25;;;;;;;;;;5095498;28;20233;-64
2021/01/06 06:53:20;;;;;;;14.88;11.07;;;;;;;;;;5095867;28;20572;-64
2021/01/06 06:55:51;;;;;;;19.95;11.55;;;;;;;;;;5095728;28;20650;-64
2021/01/06 06:58:22;;;;;;;16.30;10.70;;;;;;;;;;5095965;28;20623;-64
2021/01/06 07:00:49;;;;;;;20.60;12.30;;;;;;;;;;5095550;28;20538;-64
2021/01/06 07:03:21;;;;;;;16.80;11.45;;;;;;;;;;5095655;28;20199;-64
2021/01/06 07:05:50;;;;;;;17.40;12.05;;;;;;;;;;5095286;28;20176;-64
2021/01/06 07:08:19;;;;;;;18.27;11.82;;;;;;;;;;5094987;28;20202;-64
2021/01/06 07:10:54;;;;;;;20.80;14.45;;;;;;;;;;5095259;28;20190;-64
2021/01/06 07:13:21;;;;;;;18.60;12.23;;;;;;;;;;5094793;28;20203;-64
2021/01/06 07:15:54;;;;;;;19.13;11.80;;;;;;;;;;5095003;28;20192;-64
2021/01/06 07:18:25;;;;;;;17.58;11.85;;;;;;;;;;5095679;28;20229;-64
2021/01/06 07:21:05;;;;;;;17.55;11.50;;;;;;;;;;5093193;28;20199;-64
2021/01/06 07:23:33;;;;;;;21.58;15.05;;;;;;;;;;5094892;28;20199;-64
2021/01/06 07:26:05;;;;;;;22.83;12.68;;;;;;;;;;5094532;28;20203;-64
2021/01/06 07:28:31;;;;;;;20.60;12.65;;;;;;;;;;5095189;28;20203;-64
2021/01/06 07:31:09;;;;;;;22.35;12.13;;;;;;;;;;5094775;28;20677;-64
2021/01/06 07:33:42;;;;;;;19.70;11.52;;;;;;;;;;5094631;28;20677;-64
2021/01/06 07:36:33;;;;;;;19.58;12.13;;;;;;;;;;5095029;28;20290;-65
2021/01/06 07:39:00;;;;;;;18.35;11.35;;;;;;;;;;5094778;28;20183;-64
2021/01/06 07:41:29;;;;;;;18.75;12.35;;;;;;;;;;5094855;28;20756;-64
2021/01/06 07:44:17;;;;;;;21.60;12.70;;;;;;;;;;5094575;28;20600;-64
2021/01/06 07:47:08;;;;;;;21.05;11.85;;;;;;;;;;5094434;28;20712;-64
2021/01/06 07:49:46;;;;;;;20.48;13.70;;;;;;;;;;5086358;28;20297;-64
2021/01/06 07:52:34;;;;;;;21.85;12.75;;;;;;;;;;5105623;28;20213;-64
2021/01/06 07:55:08;;;;;;;22.48;12.98;;;;;;;;;;5087456;28;20207;-64
2021/01/06 07:57:48;;;;;;;19.70;13.07;;;;;;;;;;5112805;28;20260;-64
2021/01/06 08:00:16;;;;;;;19.45;12.10;;;;;;;;;;5114194;28;20203;-64
2021/01/06 08:02:52;;;;;;;19.55;12.75;;;;;;;;;;5113634;28;20217;-64
2021/01/06 08:05:33;;;;;;;21.90;12.77;;;;;;;;;;5113555;28;20249;-64
2021/01/06 08:08:03;;;;;;;18.48;11.90;;;;;;;;;;5113999;28;20203;-64
2021/01/06 08:10:34;;;;;;;23.48;14.00;;;;;;;;;;5114227;28;20263;-64
2021/01/06 08:13:13;;;;;;;21.45;11.70;;;;;;;;;;5098490;28;20209;-64
2021/01/06 08:15:41;;;;;;;26.35;13.68;;;;;;;;;;5094199;28;20171;-64
2021/01/06 08:18:22;;;;;;;20.85;12.13;;;;;;;;;;5093881;28;20196;-64
2021/01/06 08:21:12;;;;;;;21.98;12.75;;;;;;;;;;5094376;28;20555;-63
2021/01/06 08:23:50;;;;;;;15.27;10.80;;;;;;;;;;5090848;28;20203;-64
2021/01/06 08:26:30;;;;;;;19.92;12.38;;;;;;;;;;5094399;28;20175;-65
2021/01/06 08:29:08;;;;;;;21.58;12.55;;;;;;;;;;5093879;28;20203;-64
2021/01/06 08:31:37;;;;;;;17.17;11.93;;;;;;;;;;5094032;28;20191;-64
2021/01/06 08:34:03;;;;;;;17.23;11.25;;;;;;;;;;5093946;28;20206;-64
2021/01/06 08:36:30;;;;;;;18.10;12.43;;;;;;;;;;5093908;28;20222;-64
2021/01/06 08:39:07;;;;;;;15.93;11.27;;;;;;;;;;5092307;28;20220;-64
2021/01/06 08:41:34;;;;;;;19.52;12.07;;;;;;;;;;5094847;28;20191;-65
2021/01/06 08:44:02;;;;;;;15.63;12.15;;;;;;;;;;5094025;28;20203;-65
2021/01/06 08:46:32;;;;;;;15.70;11.43;;;;;;;;;;5093634;28;20202;-64
2021/01/06 08:49:10;;;;;;;18.63;10.18;;;;;;;;;;5093954;28;20211;-64
2021/01/06 08:51:37;;;;;;;14.23;9.57;;;;;;;;;;5092036;28;20209;-64
2021/01/06 08:54:17;;;;;;;16.05;10.98;;;;;;;;;;5093149;28;20210;-64
2021/01/06 08:56:59;;;;;;;22.38;11.20;;;;;;;;;;5093269;28;20219;-64
2021/01/06 08:59:28;;;;;;;15.88;10.75;;;;;;;;;;5093392;28;20209;-64
2021/01/06 09:02:00;;;;;;;13.70;9.63;;;;;;;;;;5093507;28;20179;-64
2021/01/06 09:04:37;;;;;;;11.85;9.68;;;;;;;;;;5093382;28;20191;-64
2021/01/06 09:07:07;;;;;;;13.68;9.35;;;;;;;;;;5097380;28;20191;-64
2021/01/06 09:09:52;;;;;;;15.77;9.90;;;;;;;;;;5097791;28;20183;-64
2021/01/06 09:12:39;;;;;;;13.30;9.85;;;;;;;;;;5097978;28;20191;-64
2021/01/06 09:15:07;;;;;;;16.88;11.68;;;;;;;;;;5097592;28;20198;-64
2021/01/06 09:17:40;;;;;;;16.00;10.73;;;;;;;;;;5098024;28;20235;-65
2021/01/06 09:20:11;;;;;;;17.90;10.30;;;;;;;;;;5097482;28;20543;-65
2021/01/06 09:22:40;;;;;;;11.77;9.02;;;;;;;;;;5097788;28;20622;-64
2021/01/06 09:25:12;;;;;;;13.73;9.57;;;;;;;;;;5097448;28;20197;-64
2021/01/06 09:27:40;;;;;;;15.30;9.88;;;;;;;;;;5097823;28;20603;-64
2021/01/06 09:30:27;;;;;;;13.18;9.32;;;;;;;;;;5097861;28;20203;-64
2021/01/06 09:33:00;;;;;;;13.70;9.10;;;;;;;;;;5088908;28;20211;-64
2021/01/06 09:35:31;;;;;;;13.95;9.85;;;;;;;;;;5097091;28;20206;-64
2021/01/06 09:38:04;;;;;;;15.32;10.95;;;;;;;;;;5097023;28;20219;-64
2021/01/06 09:40:33;;;;;;;16.88;9.85;;;;;;;;;;5097416;28;20176;-64
2021/01/06 09:43:19;;;;;;;18.10;12.55;;;;;;;;;;5097279;28;20205;-64
2021/01/06 09:45:48;;;;;;;20.98;12.10;;;;;;;;;;5096883;28;20194;-64
2021/01/06 09:48:15;;;;;;;20.45;12.63;;;;;;;;;;5096611;28;20632;-64
2021/01/06 09:50:45;;;;;;;22.92;13.77;;;;;;;;;;5097322;28;20660;-65
2021/01/06 09:53:14;;;;;;;19.77;14.38;;;;;;;;;;5096948;28;20557;-65
2021/01/06 09:55:46;;;;;;;16.60;11.88;;;;;;;;;;5096718;28;20191;-65
2021/01/06 09:58:18;;;;;;;15.35;10.38;;;;;;;;;;5096954;28;20212;-65
2021/01/06 10:01:04;;;;;;;19.02;13.13;;;;;;;;;;5096807;28;20536;-65
2021/01/06 10:03:32;;;;;;;20.38;12.70;;;;;;;;;;5096582;28;20301;-64
2021/01/06 10:06:14;;;;;;;18.80;11.18;;;;;;;;;;5096720;28;20176;-64
2021/01/06 10:08:58;;;;;;;17.75;10.60;;;;;;;;;;5096569;28;20199;-65
2021/01/06 10:11:44;;;;;;;24.48;12.55;;;;;;;;;;5096758;28;20610;-65
2021/01/06 10:14:10;;;;;;;15.65;11.13;;;;;;;;;;5096956;28;20180;-65
2021/01/06 10:17:01;;;;;;;14.18;10.70;;;;;;;;;;5096055;28;20223;-65
2021/01/06 10:19:48;;;;;;;18.85;12.18;;;;;;;;;;5096275;28;20222;-65
2021/01/06 10:22:25;;;;;;;17.73;11.90;;;;;;;;;;5097312;28;20209;-65
2021/01/06 10:25:01;;;;;;;16.33;11.52;;;;;;;;;;5095931;28;20199;-65
2021/01/06 10:27:30;;;;;;;15.95;11.48;;;;;;;;;;5098587;28;20217;-65
2021/01/06 10:30:08;;;;;;;20.73;13.27;;;;;;;;;;5096521;28;20183;-66
2021/01/06 10:32:39;;;;;;;19.98;12.15;;;;;;;;;;5095019;28;20217;-65
2021/01/06 10:35:27;;;;;;;19.77;12.93;;;;;;;;;;5096110;28;20180;-64
2021/01/06 10:37:54;;;;;;;21.05;11.90;;;;;;;;;;5095432;28;20628;-64
2021/01/06 10:40:33;;;;;;;19.05;11.40;;;;;;;;;;5096427;28;20195;-65
2021/01/06 10:43:20;;;;;;;18.63;13.07;;;;;;;;;;5096468;28;20186;-65
2021/01/06 10:45:47;;;;;;;17.38;10.43;;;;;;;;;;5095702;28;20269;-64
2021/01/06 10:48:33;;;;;;;20.00;12.60;;;;;;;;;;5095703;28;20231;-65
2021/01/06 10:51:00;;;;;;;19.65;10.40;;;;;;;;;;5094495;28;20550;-65
2021/01/06 10:53:27;;;;;;;19.00;11.93;;;;;;;;;;5095890;28;20289;-65
2021/01/06 10:56:03;;;;;;;24.10;12.70;;;;;;;;;;5096204;28;20214;-64
2021/01/06 10:58:45;;;;;;;17.00;12.20;;;;;;;;;;5095463;28;20219;-65
2021/01/06 11:01:18;;;;;;;19.45;12.15;;;;;;;;;;5095749;28;20195;-65
2021/01/06 11:03:59;;;;;;;16.92;10.73;;;;;;;;;;5095721;28;20182;-65
2021/01/06 11:06:30;;;;;;;17.35;10.75;;;;;;;;;;5095510;28;20198;-65
2021/01/06 11:09:10;;;;;;;21.20;13.32;;;;;;;;;;5095526;28;20180;-65
2021/01/06 11:11:51;;;;;;;17.00;9.93;;;;;;;;;;5095643;28;20607;-65
2021/01/06 11:14:18;;;;;;;18.88;11.18;;;;;;;;;;5096049;28;20191;-65
2021/01/06 11:16:56;;;;;;;15.05;10.18;;;;;;;;;;5095416;28;20215;-65
2021/01/06 11:19:36;;;;;;;14.85;10.40;;;;;;;;;;5095533;28;20187;-64
2021/01/06 11:22:06;;;;;;;17.52;11.55;;;;;;;;;;5095828;28;20248;-64
2021/01/06 11:24:53;;;;;;;14.15;9.68;;;;;;;;;;5095605;28;20204;-65
2021/01/06 11:27:38;;;;;;;16.27;9.70;;;;;;;;;;5070533;28;20230;-65
2021/01/06 11:30:28;;;;;;;16.73;11.68;;;;;;;;;;5094344;28;20188;-65
2021/01/06 11:33:10;;;;;;;18.38;10.93;;;;;;;;;;5095244;28;20199;-65
2021/01/06 11:35:49;;;;;;;17.90;12.05;;;;;;;;;;5094885;28;20273;-65
2021/01/06 11:38:36;;;;;;;19.17;12.45;;;;;;;;;;5095020;28;20298;-65
2021/01/06 11:41:10;;;;;;;17.33;12.98;;;;;;;;;;5094719;28;20620;-64
2021/01/06 11:43:46;;;;;;;14.43;11.40;;;;;;;;;;5094534;28;20203;-64
2021/01/06 11:46:36;;;;;;;16.98;11.30;;;;;;;;;;5094966;28;20206;-65
2021/01/06 11:49:11;;;;;;;15.80;10.68;;;;;;;;;;5084600;28;20301;-65
2021/01/06 11:51:41;;;;;;;28.52;17.75;;;;;;;;;;5094463;28;20281;-65
2021/01/06 11:54:18;;;;;;;27.65;15.80;;;;;;;;;;5093391;28;20522;-66
2021/01/06 11:56:51;;;;;;;25.30;16.65;;;;;;;;;;5094479;28;20586;-65
2021/01/06 11:59:24;;;;;;;17.42;11.35;;;;;;;;;;5094556;28;20225;-65
2021/01/06 12:01:52;;;;;;;24.15;14.70;;;;;;;;;;5095124;28;20219;-65
2021/01/06 12:04:28;;;;;;;20.00;13.10;;;;;;;;;;5094543;28;20196;-65
2021/01/06 12:06:57;;;;;;;14.48;10.50;;;;;;;;;;5095004;28;20203;-66
2021/01/06 12:09:43;;;;;;;15.13;11.27;;;;;;;;;;5094254;28;20606;-65
2021/01/06 12:12:10;;;;;;;19.48;13.13;;;;;;;;;;5094263;28;20714;-65
2021/01/06 12:14:53;;;;;;;17.60;12.43;;;;;;;;;;5094452;28;20291;-65
2021/01/06 12:17:26;;;;;;;14.50;11.65;;;;;;;;;;5094330;28;20196;-66
2021/01/06 12:20:03;;;;;;;12.20;9.95;;;;;;;;;;5092767;28;20659;-65
2021/01/06 12:22:30;;;;;;;14.02;11.15;;;;;;;;;;5094180;28;20630;-65
2021/01/06 12:25:04;;;;;;;27.92;10.48;;;;;;;;;;5093898;28;20187;-65
2021/01/06 12:27:41;;;;;;;18.05;11.68;;;;;;;;;;5094201;28;20268;-65
2021/01/06 12:30:10;;;;;;;14.98;10.70;;;;;;;;;;5094065;28;20234;-65
2021/01/06 12:32:56;;;;;;;22.60;14.38;;;;;;;;;;5093676;28;20236;-65
2021/01/06 12:35:30;;;;;;;16.92;13.95;;;;;;;;;;5093860;28;20172;-65
2021/01/06 12:38:08;;;;;;;14.15;10.23;;;;;;;;;;5093791;28;20195;-66
2021/01/06 12:40:36;;;;;;;20.05;13.23;;;;;;;;;;5093788;28;20640;-65
2021/01/06 12:43:05;;;;;;;20.33;14.45;;;;;;;;;;5093972;28;20203;-65
2021/01/06 12:45:37;;;;;;;14.63;12.45;;;;;;;;;;5093981;28;20653;-64
2021/01/06 12:48:24;;;;;;;19.17;12.32;;;;;;;;;;5093615;28;20230;-65
2021/01/06 12:51:04;;;;;;;17.50;11.93;;;;;;;;;;5093571;28;20191;-66
2021/01/06 12:53:33;;;;;;;15.73;12.18;;;;;;;;;;5093819;28;20181;-65
2021/01/06 12:56:06;;;;;;;16.88;12.50;;;;;;;;;;5093193;28;20200;-65
2021/01/06 12:58:39;;;;;;;17.85;12.38;;;;;;;;;;5093418;28;20636;-65
2021/01/06 13:01:14;;;;;;;14.75;11.38;;;;;;;;;;5094442;28;20191;-65
2021/01/06 13:03:43;;;;;;;18.58;11.50;;;;;;;;;;5092391;28;20193;-65
2021/01/06 13:06:10;;;;;;;14.45;10.90;;;;;;;;;;5093971;28;20233;-65
2021/01/06 13:08:49;;;;;;;14.75;11.30;;;;;;;;;;5093367;28;20199;-65
2021/01/06 13:11:26;;;;;;;17.88;10.20;;;;;;;;;;5093418;28;20244;-65
2021/01/06 13:14:05;;;;;;;10.63;8.40;;;;;;;;;;5092022;28;20211;-66
2021/01/06 13:16:37;;;;;;;12.65;9.02;;;;;;;;;;5092823;28;20206;-65
2021/01/06 13:19:03;;;;;;;13.75;9.50;;;;;;;;;;5093414;28;20233;-65
2021/01/06 13:21:31;;;;;;;12.98;8.40;;;;;;;;;;5093378;28;20203;-64
2021/01/06 13:23:58;;;;;;;19.73;10.63;;;;;;;;;;5093179;28;20619;-65
2021/01/06 13:26:39;;;;;;;15.93;10.73;;;;;;;;;;5093362;28;20287;-65
2021/01/06 13:29:09;;;;;;;16.13;9.48;;;;;;;;;;5094012;28;20523;-65
2021/01/06 13:31:46;;;;;;;12.63;8.50;;;;;;;;;;5092898;28;20210;-65
2021/01/06 13:34:16;;;;;;;19.88;13.35;;;;;;;;;;5093433;28;20631;-65
2021/01/06 13:36:53;;;;;;;19.58;14.60;;;;;;;;;;5093136;28;20631;-65
2021/01/06 13:39:50;;;;;;;14.65;11.15;;;;;;;;;;5093294;28;20199;-65
2021/01/06 13:42:29;;;;;;;14.50;9.93;;;;;;;;;;5080955;28;20204;-65
2021/01/06 13:45:08;;;;;;;15.20;9.85;;;;;;;;;;5093377;28;20203;-65
2021/01/06 13:47:40;;;;;;;12.65;10.70;;;;;;;;;;5092970;28;20678;-65
2021/01/06 13:50:20;;;;;;;13.48;10.30;;;;;;;;;;5093156;28;20623;-67
2021/01/06 13:53:08;;;;;;;10.43;8.88;;;;;;;;;;5094905;28;20202;-65
2021/01/06 13:55:49;;;;;;;11.55;8.90;;;;;;;;;;5096953;28;20533;-64
2021/01/06 13:58:27;;;;;;;14.07;8.90;;;;;;;;;;5096697;28;20272;-64
2021/01/06 14:01:01;;;;;;;13.18;7.97;;;;;;;;;;5096720;28;20176;-65
2021/01/06 14:03:31;;;;;;;12.65;8.23;;;;;;;;;;5096562;28;20196;-64
2021/01/06 14:06:04;;;;;;;7.13;6.35;;;;;;;;;;5096529;28;20556;-64
2021/01/06 14:08:50;;;;;;;11.60;7.90;;;;;;;;;;5096414;28;20286;-65
2021/01/06 14:11:25;;;;;;;10.85;7.75;;;;;;;;;;5096377;28;20244;-65
2021/01/06 14:13:55;;;;;;;8.05;6.95;;;;;;;;;;5096517;28;20641;-64
2021/01/06 14:16:35;;;;;;;9.63;6.75;;;;;;;;;;5096338;28;20199;-65
2021/01/06 14:19:20;;;;;;;8.75;6.97;;;;;;;;;;5096494;28;20211;-65
2021/01/06 14:22:04;;;;;;;6.63;5.70;;;;;;;;;;5096249;28;20199;-65
2021/01/06 14:24:32;;;;;;;7.70;6.07;;;;;;;;;;5095976;28;20199;-65
2021/01/06 14:27:02;;;;;;;13.02;6.95;;;;;;;;;;5096417;28;20577;-65
2021/01/06 14:29:41;;;;;;;8.60;6.53;;;;;;;;;;5096398;28;20202;-65
2021/01/06 14:32:20;;;;;;;9.23;7.57;;;;;;;;;;5096269;28;20340;-65
2021/01/06 14:35:02;;;;;;;11.02;7.63;;;;;;;;;;5096022;28;20180;-65
2021/01/06 14:37:31;;;;;;;10.27;8.38;;;;;;;;;;5095908;28;20218;-65
2021/01/06 14:40:28;;;;;;;9.82;7.88;;;;;;;;;;5095912;28;20191;-66
2021/01/06 14:43:09;;;;;;;9.02;7.65;;;;;;;;;;5083211;28;20557;-64
2021/01/06 14:45:54;;;;;;;10.07;7.00;;;;;;;;;;5094694;28;20641;-64
2021/01/06 14:48:34;;;;;;;8.18;6.93;;;;;;;;;;5095540;28;20241;-64
2021/01/06 14:51:10;;;;;;;6.80;5.97;;;;;;;;;;5095413;28;20207;-64
2021/01/06 14:53:43;;;;;;;8.82;5.90;;;;;;;;;;5095719;28;20202;-64
2021/01/06 14:56:13;;;;;;;7.53;6.25;;;;;;;;;;5095860;28;20203;-64